Time;durP1;ratioP1;P1;durP2;ratioP2;P2;SDS_P1;SDS_P2;PMS_P1;PMS_P2;Temp;Humidity;BMP_temperature;BMP_pressure;BME280_temperature;BME280_humidity;BME280_pressure;Samples;Min_cycle;Max_cycle;Signal;HPM_P1;HPM_P2
2023/04/14 00:00:28;;;;;;;11.70;8.00;;;;;;;4.80;100.00;100642.69;7386423;19;20447;-35
2023/04/14 00:02:57;;;;;;;15.20;8.40;;;;;;;4.75;100.00;100649.19;7392641;19;20447;-35
2023/04/14 00:05:30;;;;;;;15.43;9.30;;;;;;;4.81;100.00;100654.69;7391840;19;20522;-35
2023/04/14 00:08:02;;;;;;;16.80;10.03;;;;;;;4.83;100.00;100659.09;7392077;19;20396;-36
2023/04/14 00:10:32;;;;;;;14.70;9.40;;;;;;;4.81;100.00;100654.69;7391848;19;20790;-36
2023/04/14 00:13:01;;;;;;;14.70;8.93;;;;;;;4.73;100.00;100652.53;7392751;19;20442;-36
2023/04/14 00:15:31;;;;;;;16.33;9.70;;;;;;;4.76;100.00;100648.41;7390908;19;20462;-35
2023/04/14 00:18:01;;;;;;;17.07;9.87;;;;;;;4.78;100.00;100646.84;7392677;19;20411;-36
2023/04/14 00:20:30;;;;;;;16.57;9.30;;;;;;;4.85;100.00;100651.53;7390592;19;21002;-36
2023/04/14 00:23:02;;;;;;;17.20;9.13;;;;;;;4.85;100.00;100651.53;7392714;19;20443;-36
2023/04/14 00:25:32;;;;;;;15.50;9.53;;;;;;;4.82;100.00;100657.34;7392047;19;20469;-36
2023/04/14 00:28:02;;;;;;;16.93;9.50;;;;;;;4.80;100.00;100655.47;7391100;19;20411;-36
2023/04/14 00:30:31;;;;;;;20.03;9.47;;;;;;;4.79;100.00;100658.81;7391748;19;20459;-34
2023/04/14 00:33:01;;;;;;;14.07;8.73;;;;;;;4.80;100.00;100655.47;7392388;19;20474;-37
2023/04/14 00:35:31;;;;;;;16.57;9.70;;;;;;;4.75;100.00;100672.19;7391622;19;20452;-35
2023/04/14 00:38:03;;;;;;;15.50;9.20;;;;;;;4.73;100.00;100667.00;7393866;19;20399;-35
2023/04/14 00:40:32;;;;;;;17.17;9.53;;;;;;;4.61;100.00;100677.31;7390294;19;20990;-35
2023/04/14 00:43:02;;;;;;;13.33;8.80;;;;;;;4.66;100.00;100675.06;7390918;19;21038;-36
2023/04/14 00:45:32;;;;;;;15.67;8.93;;;;;;;4.63;100.00;100670.63;7390275;19;20914;-36
2023/04/14 00:48:01;;;;;;;13.67;9.53;;;;;;;4.61;100.00;100677.31;7391317;19;21070;-36
2023/04/14 00:50:31;;;;;;;13.20;8.30;;;;;;;4.56;100.00;100678.69;7389429;19;20439;-36
2023/04/14 00:53:03;;;;;;;17.67;10.77;;;;;;;4.63;100.00;100674.84;7391251;19;20447;-36
2023/04/14 00:55:35;;;;;;;18.30;8.83;;;;;;;4.61;100.00;100677.31;7390619;19;20464;-35
2023/04/14 00:58:04;;;;;;;14.50;8.23;;;;;;;4.64;100.00;100672.41;7392912;19;20407;-35
2023/04/14 01:00:35;;;;;;;14.17;9.50;;;;;;;4.67;100.00;100677.69;7389528;19;20450;-35
2023/04/14 01:03:05;;;;;;;15.20;8.53;;;;;;;4.62;100.00;100678.19;7392429;19;20447;-35
2023/04/14 01:05:35;;;;;;;16.00;9.40;;;;;;;4.56;100.00;100681.25;7391327;19;20443;-35
2023/04/14 01:08:07;;;;;;;17.20;9.53;;;;;;;4.51;100.00;100682.63;7392022;19;20422;-35
2023/04/14 01:10:42;;;;;;;15.17;8.10;;;;;;;4.48;100.00;100680.75;7391807;19;20946;-45
2023/04/14 01:13:21;;;;;;;22.10;8.70;;;;;;;4.40;100.00;100677.69;7398081;19;20446;-37
2023/04/14 01:15:55;;;;;;;17.50;8.50;;;;;;;4.31;100.00;100682.22;7397262;19;20446;-35
2023/04/14 01:18:30;;;;;;;22.63;7.63;;;;;;;4.37;100.00;100676.59;7398090;19;20434;-36
2023/04/14 01:21:06;;;;;;;15.53;8.13;;;;;;;4.44;100.00;100674.56;7396191;19;20453;-36
2023/04/14 01:23:43;;;;;;;24.23;8.40;;;;;;;4.49;100.00;100676.50;7398525;19;20477;-35
2023/04/14 01:26:30;;;;;;;22.53;10.90;;;;;;;4.54;100.00;100680.25;7397616;19;20446;-35
2023/04/14 01:29:28;;;;;;;14.43;8.03;;;;;;;4.49;100.00;100686.72;7397665;19;20774;-35
2023/04/14 01:32:04;;;;;;;18.10;8.73;;;;;;;4.44;100.00;100679.66;7397535;19;20470;-36
2023/04/14 01:34:37;;;;;;;18.07;9.60;;;;;;;4.48;100.00;100680.75;7395660;19;21053;-35
2023/04/14 01:37:08;;;;;;;22.70;11.43;;;;;;;4.57;100.00;100683.03;7397155;19;20402;-35
2023/04/14 01:39:40;;;;;;;14.63;8.40;;;;;;;4.57;100.00;100690.69;7395918;19;20436;-34
2023/04/14 01:42:14;;;;;;;17.77;8.37;;;;;;;4.49;100.00;100697.84;7396566;19;20446;-36
2023/04/14 01:44:44;;;;;;;12.10;8.23;;;;;;;4.23;100.00;100703.78;7396467;19;20423;-35
2023/04/14 01:47:19;;;;;;;13.30;7.83;;;;;;;3.95;100.00;100701.94;7397990;19;20446;-34
2023/04/14 01:49:50;;;;;;;15.50;8.70;;;;;;;3.86;100.00;100699.66;7396217;19;20450;-35
2023/04/14 01:52:20;;;;;;;14.60;9.00;;;;;;;3.90;100.00;100699.94;7397191;19;20563;-35
2023/04/14 01:54:52;;;;;;;18.70;10.30;;;;;;;4.02;100.00;100696.47;7397211;19;20783;-36
2023/04/14 01:57:22;;;;;;;16.63;9.67;;;;;;;3.94;100.00;100695.94;7395997;19;20412;-36
2023/04/14 01:59:54;;;;;;;13.77;8.60;;;;;;;4.03;100.00;100700.78;7395504;19;20447;-34
2023/04/14 02:02:27;;;;;;;15.00;9.00;;;;;;;3.99;100.00;100698.81;7396351;19;20978;-35
2023/04/14 02:04:58;;;;;;;13.33;8.30;;;;;;;3.97;100.00;100700.38;7394877;19;20435;-35
2023/04/14 02:07:28;;;;;;;11.93;7.80;;;;;;;4.04;100.00;100702.53;7400514;19;20423;-34
2023/04/14 02:09:58;;;;;;;16.23;9.20;;;;;;;4.12;100.00;100700.50;7391437;19;20431;-36
2023/04/14 02:12:28;;;;;;;16.53;8.40;;;;;;;4.18;100.00;100709.50;7396297;19;20827;-34
2023/04/14 02:15:00;;;;;;;14.67;9.20;;;;;;;4.12;100.00;100711.63;7393725;19;21077;-36
2023/04/14 02:17:32;;;;;;;12.67;7.30;;;;;;;4.01;100.00;100707.47;7400593;19;20418;-35
2023/04/14 02:20:03;;;;;;;14.73;9.00;;;;;;;3.99;100.00;100703.94;7396984;19;20973;-36
2023/04/14 02:22:32;;;;;;;12.80;7.30;;;;;;;3.99;100.00;100706.50;7394108;19;20447;-35
2023/04/14 02:25:02;;;;;;;14.03;7.83;;;;;;;3.96;100.00;100708.81;7393113;19;20461;-35
2023/04/14 02:27:33;;;;;;;11.77;7.73;;;;;;;3.99;100.00;100704.78;7396445;19;20434;-36
2023/04/14 02:30:05;;;;;;;16.40;8.80;;;;;;;4.14;100.00;100702.41;7393031;19;20447;-35
2023/04/14 02:32:39;;;;;;;11.50;6.80;;;;;;;4.09;100.00;100708.00;7396317;19;20450;-36
2023/04/14 02:35:13;;;;;;;12.83;6.67;;;;;;;4.01;100.00;100712.56;7394327;19;20462;-35
2023/04/14 02:37:45;;;;;;;10.60;5.83;;;;;;;3.91;100.00;100718.72;7397546;19;20414;-35
2023/04/14 02:40:19;;;;;;;12.60;5.57;;;;;;;3.94;100.00;100726.56;7395487;19;20447;-36
2023/04/14 02:42:53;;;;;;;9.00;5.40;;;;;;;3.94;100.00;100730.81;7396561;19;20819;-36
2023/04/14 02:45:24;;;;;;;10.43;6.40;;;;;;;3.86;100.00;100725.16;7394760;19;20527;-36
2023/04/14 02:48:03;;;;;;;13.67;7.50;;;;;;;3.75;100.00;100740.63;7394682;19;20406;-36
2023/04/14 02:50:34;;;;;;;14.47;8.73;;;;;;;3.74;100.00;100733.75;7394493;19;20439;-36
2023/04/14 02:53:04;;;;;;;12.70;7.50;;;;;;;3.60;100.00;100740.44;7396200;19;20514;-34
2023/04/14 02:55:34;;;;;;;12.33;7.80;;;;;;;3.60;100.00;100740.44;7396233;19;20458;-36
2023/04/14 02:58:04;;;;;;;15.27;7.67;;;;;;;3.61;100.00;100743.91;7394800;19;20756;-35
2023/04/14 03:00:34;;;;;;;11.00;7.10;;;;;;;3.51;100.00;100756.03;7395455;19;20439;-36
2023/04/14 03:03:07;;;;;;;15.33;8.83;;;;;;;3.49;100.00;100752.47;7395644;19;20455;-35
2023/04/14 03:05:36;;;;;;;12.83;8.10;;;;;;;3.42;100.00;100754.47;7395982;19;20481;-34
2023/04/14 03:08:07;;;;;;;16.13;8.20;;;;;;;3.24;100.00;100757.50;7394979;19;20945;-36
2023/04/14 03:10:36;;;;;;;13.17;8.07;;;;;;;3.25;100.00;100751.63;7392914;19;20458;-34
2023/04/14 03:13:06;;;;;;;13.40;8.23;;;;;;;3.42;100.00;100755.34;7393964;19;20785;-36
2023/04/14 03:15:37;;;;;;;13.27;8.10;;;;;;;3.49;100.00;100741.38;7394914;19;20823;-34
2023/04/14 03:18:09;;;;;;;13.17;8.57;;;;;;;3.43;100.00;100749.47;7396236;19;20400;-34
2023/04/14 03:20:40;;;;;;;16.60;10.10;;;;;;;3.45;100.00;100741.94;7394212;19;20450;-34
2023/04/14 03:23:11;;;;;;;16.30;9.47;;;;;;;3.36;100.00;100750.72;7395422;19;20451;-35
2023/04/14 03:25:42;;;;;;;17.60;9.73;;;;;;;3.33;100.00;100755.59;7393848;19;20439;-35
2023/04/14 03:28:14;;;;;;;16.90;9.27;;;;;;;3.36;100.00;100758.38;7395543;19;20399;-36
2023/04/14 03:30:48;;;;;;;17.40;9.90;;;;;;;3.37;100.00;100757.59;7393707;19;20439;-36
2023/04/14 03:33:23;;;;;;;15.80;8.93;;;;;;;3.43;100.00;100756.25;7395215;19;20455;-36
2023/04/14 03:35:54;;;;;;;13.47;9.03;;;;;;;3.45;100.00;100763.25;7394357;19;21351;-35
2023/04/14 03:38:27;;;;;;;14.90;8.20;;;;;;;3.42;100.00;100757.00;7394764;19;20415;-35
2023/04/14 03:41:03;;;;;;;15.90;8.90;;;;;;;3.41;100.00;100753.59;7389478;19;20471;-35
2023/04/14 03:43:33;;;;;;;17.20;9.20;;;;;;;3.40;100.00;100761.13;7395685;19;20783;-36
2023/04/14 03:46:04;;;;;;;19.57;9.50;;;;;;;3.39;100.00;100767.91;7394128;19;20799;-37
2023/04/14 03:48:41;;;;;;;14.77;8.93;;;;;;;3.41;100.00;100758.69;7395702;19;20411;-35
2023/04/14 03:51:13;;;;;;;17.57;10.00;;;;;;;3.45;100.00;100755.59;7393241;19;20425;-36
2023/04/14 03:53:45;;;;;;;19.50;10.20;;;;;;;3.47;100.00;100756.56;7396033;19;20460;-36
2023/04/14 03:56:15;;;;;;;16.83;8.87;;;;;;;3.40;100.00;100756.94;7393711;19;20485;-36
2023/04/14 03:58:46;;;;;;;16.87;9.07;;;;;;;3.43;100.00;100762.22;7395698;19;20404;-34
2023/04/14 04:01:16;;;;;;;14.77;8.73;;;;;;;3.38;100.00;100764.47;7392974;19;20439;-36
2023/04/14 04:03:49;;;;;;;14.60;8.50;;;;;;;3.36;100.00;100765.13;7394758;19;20439;-36
2023/04/14 04:06:19;;;;;;;15.37;7.90;;;;;;;3.36;100.00;100768.59;7394083;19;20431;-36
2023/04/14 04:08:50;;;;;;;13.63;7.83;;;;;;;3.43;100.00;100771.56;7395241;19;20407;-35
2023/04/14 04:11:20;;;;;;;15.30;7.80;;;;;;;3.45;100.00;100775.09;7393176;19;20447;-35
2023/04/14 04:13:50;;;;;;;16.70;7.80;;;;;;;3.45;100.00;100767.44;7395188;19;20983;-36
2023/04/14 04:16:21;;;;;;;13.10;8.27;;;;;;;3.44;100.00;100779.31;7393699;19;20439;-35
2023/04/14 04:18:54;;;;;;;14.90;9.40;;;;;;;3.38;100.00;100773.75;7394718;19;20415;-34
2023/04/14 04:21:28;;;;;;;15.10;9.20;;;;;;;3.35;100.00;100776.97;7393431;19;20796;-36
2023/04/14 04:23:58;;;;;;;17.23;9.07;;;;;;;3.36;100.00;100777.88;7393010;19;21303;-35
2023/04/14 04:26:28;;;;;;;14.97;7.80;;;;;;;3.28;100.00;100784.97;7393051;19;20439;-37
2023/04/14 04:28:59;;;;;;;16.10;8.70;;;;;;;3.24;100.00;100788.97;7393559;19;21285;-36
2023/04/14 04:31:31;;;;;;;13.27;7.90;;;;;;;3.13;100.00;100797.50;7392652;19;20461;-35
2023/04/14 04:34:04;;;;;;;12.63;7.47;;;;;;;3.08;100.00;100801.41;7393588;19;20428;-36
2023/04/14 04:36:35;;;;;;;17.97;7.50;;;;;;;3.03;100.00;100795.94;7392900;19;20439;-34
2023/04/14 04:39:05;;;;;;;12.27;6.83;;;;;;;3.17;100.00;100798.66;7393581;19;20415;-35
2023/04/14 04:41:34;;;;;;;12.20;6.87;;;;;;;3.22;100.00;100802.38;7392206;19;20443;-34
2023/04/14 04:44:04;;;;;;;12.43;7.10;;;;;;;3.21;100.00;100803.16;7395627;19;20414;-36
2023/04/14 04:46:48;;;;;;;13.63;7.40;;;;;;;3.03;100.00;100806.16;7391698;19;20443;-38
2023/04/14 04:49:20;;;;;;;12.80;7.00;;;;;;;3.03;100.00;100801.06;7395075;19;20403;-39
2023/04/14 04:51:50;;;;;;;14.90;6.47;;;;;;;3.12;100.00;100805.94;7390887;19;20443;-35
2023/04/14 04:54:19;;;;;;;12.13;5.80;;;;;;;2.99;100.00;100793.97;7392263;19;20816;-35
2023/04/14 04:56:49;;;;;;;10.07;5.83;;;;;;;2.96;100.00;100793.75;7393532;19;20451;-34
2023/04/14 04:59:19;;;;;;;13.63;5.90;;;;;;;2.97;100.00;100798.06;7394021;19;20419;-35
2023/04/14 05:01:48;;;;;;;16.30;8.10;;;;;;;2.99;100.00;100793.06;7392843;19;20440;-35
2023/04/14 05:04:21;;;;;;;12.90;5.57;;;;;;;2.89;100.00;100784.78;7394455;19;20411;-35
2023/04/14 05:06:50;;;;;;;12.10;6.80;;;;;;;2.88;100.00;100779.56;7395271;19;20792;-36
2023/04/14 05:09:20;;;;;;;15.90;7.67;;;;;;;2.92;100.00;100781.56;7393414;19;20408;-36
2023/04/14 05:11:49;;;;;;;17.10;8.13;;;;;;;2.95;100.00;100776.69;7392121;19;20465;-36
2023/04/14 05:14:19;;;;;;;19.13;8.37;;;;;;;2.93;100.00;100771.44;7393557;19;20780;-36
2023/04/14 05:16:52;;;;;;;17.20;7.80;;;;;;;2.94;100.00;100769.81;7392442;19;21009;-36
2023/04/14 05:19:24;;;;;;;17.87;7.20;;;;;;;2.97;100.00;100775.13;7394039;19;20411;-36
2023/04/14 05:21:54;;;;;;;15.53;7.30;;;;;;;2.97;100.00;100772.56;7393546;19;20475;-40
2023/04/14 05:24:24;;;;;;;17.80;9.10;;;;;;;3.08;100.00;100769.13;7393527;19;20407;-36
2023/04/14 05:26:54;;;;;;;12.23;7.57;;;;;;;3.09;100.00;100760.72;7394743;19;20439;-38
2023/04/14 05:29:42;;;;;;;21.83;11.43;;;;;;;3.21;100.00;100754.72;7390542;19;20428;-36
2023/04/14 05:32:13;;;;;;;21.10;8.43;;;;;;;3.23;100.00;100754.06;7391714;19;20431;-34
2023/04/14 05:34:45;;;;;;;12.47;7.30;;;;;;;3.19;100.00;100751.19;7387759;19;20415;-36
2023/04/14 05:37:15;;;;;;;14.73;7.40;;;;;;;3.33;100.00;100749.63;7391821;19;20399;-36
2023/04/14 05:39:45;;;;;;;18.10;7.63;;;;;;;3.50;100.00;100738.06;7390299;19;20506;-36
2023/04/14 05:42:15;;;;;;;11.57;6.77;;;;;;;3.51;100.00;100734.72;7391144;19;20442;-36
2023/04/14 05:44:44;;;;;;;18.10;9.90;;;;;;;3.56;100.00;100743.59;7389844;19;20407;-36
2023/04/14 05:47:14;;;;;;;12.33;6.70;;;;;;;3.65;100.00;100745.91;7393463;19;20406;-35
2023/04/14 05:49:46;;;;;;;13.27;7.93;;;;;;;3.66;100.00;100740.00;7387387;19;20813;-35
2023/04/14 05:52:16;;;;;;;17.97;9.60;;;;;;;3.75;100.00;100744.88;7391405;19;20443;-35
2023/04/14 05:54:45;;;;;;;16.47;8.97;;;;;;;3.74;100.00;100743.09;7389868;19;20422;-35
2023/04/14 05:57:15;;;;;;;14.73;8.40;;;;;;;3.78;100.00;100739.94;7396985;19;20395;-35
2023/04/14 05:59:44;;;;;;;12.27;8.07;;;;;;;3.80;100.00;100743.53;7397737;19;20411;-34
2023/04/14 06:02:14;;;;;;;19.23;8.90;;;;;;;3.71;100.00;100743.75;7398035;19;20447;-35
2023/04/14 06:04:47;;;;;;;15.07;8.53;;;;;;;3.76;100.00;100749.19;7396829;19;20403;-35
2023/04/14 06:07:17;;;;;;;16.27;8.73;;;;;;;3.82;100.00;100752.16;7398590;19;20412;-35
2023/04/14 06:09:47;;;;;;;15.00;7.97;;;;;;;3.89;100.00;100748.34;7396387;19;20770;-36
2023/04/14 06:12:17;;;;;;;17.60;8.27;;;;;;;3.92;100.00;100754.56;7397183;19;21009;-35
2023/04/14 06:14:46;;;;;;;16.20;8.50;;;;;;;4.03;100.00;100755.31;7396209;19;20427;-35
2023/04/14 06:17:16;;;;;;;15.17;8.93;;;;;;;4.06;100.00;100752.06;7398154;19;20491;-36
2023/04/14 06:19:48;;;;;;;16.10;9.27;;;;;;;4.12;100.00;100757.59;7395053;19;25196;-36
2023/04/14 06:22:18;;;;;;;20.30;10.43;;;;;;;4.12;100.00;100755.03;7398068;19;20495;-35
2023/04/14 06:24:48;;;;;;;18.83;8.90;;;;;;;4.18;100.00;100752.91;7395764;19;20433;-34
2023/04/14 06:27:17;;;;;;;15.57;8.50;;;;;;;4.27;100.00;100752.66;7397309;19;20408;-36
2023/04/14 06:29:47;;;;;;;17.20;9.37;;;;;;;4.38;100.00;100749.91;7394636;19;20415;-36
2023/04/14 06:32:16;;;;;;;16.60;9.40;;;;;;;4.40;100.00;100754.34;7396765;19;20454;-36
2023/04/14 06:34:49;;;;;;;16.10;9.20;;;;;;;4.51;100.00;100756.72;7397740;19;20422;-34
2023/04/14 06:37:21;;;;;;;18.43;9.87;;;;;;;4.53;100.00;100750.03;7396429;19;20411;-35
2023/04/14 06:39:51;;;;;;;15.20;9.03;;;;;;;4.57;100.00;100752.88;7394960;19;20781;-34
2023/04/14 06:42:20;;;;;;;15.60;9.63;;;;;;;4.72;100.00;100749.59;7396533;19;20462;-36
2023/04/14 06:44:49;;;;;;;15.53;8.80;;;;;;;4.75;100.00;100751.44;7395247;19;20446;-36
2023/04/14 06:47:20;;;;;;;17.20;9.20;;;;;;;4.81;100.00;100745.06;7396422;19;20407;-36
2023/04/14 06:49:52;;;;;;;16.73;9.77;;;;;;;4.97;100.00;100744.38;7394795;19;20431;-36
2023/04/14 06:52:21;;;;;;;16.20;9.27;;;;;;;5.05;100.00;100746.53;7395721;19;20447;-34
2023/04/14 06:54:51;;;;;;;21.83;10.50;;;;;;;5.14;100.00;100744.59;7396454;19;20430;-35
2023/04/14 06:57:20;;;;;;;19.23;10.93;;;;;;;5.23;100.00;100740.03;7396189;19;20408;-34
2023/04/14 06:59:50;;;;;;;18.63;11.30;;;;;;;5.39;100.00;100753.81;7394166;19;20400;-34
2023/04/14 07:02:20;;;;;;;13.70;8.67;;;;;;;5.52;100.00;100753.78;7397417;19;20439;-35
2023/04/14 07:04:52;;;;;;;22.77;9.70;;;;;;;5.60;100.00;100744.03;7395245;19;20450;-35
2023/04/14 07:07:23;;;;;;;25.33;13.80;;;;;;;5.79;100.00;100746.03;7397592;19;20414;-36
2023/04/14 07:09:52;;;;;;;21.73;11.97;;;;;;;5.90;100.00;100748.34;7394059;19;20443;-35
2023/04/14 07:12:22;;;;;;;20.43;9.40;;;;;;;5.98;100.00;100749.69;7395954;19;20443;-36
2023/04/14 07:14:52;;;;;;;25.97;12.20;;;;;;;6.16;100.00;100743.94;7395300;19;20435;-35
2023/04/14 07:17:22;;;;;;;26.17;13.70;;;;;;;6.27;100.00;100742.91;7396516;19;20427;-35
2023/04/14 07:19:54;;;;;;;30.17;15.27;;;;;;;6.44;100.00;100748.13;7394094;19;20411;-38
2023/04/14 07:22:23;;;;;;;23.40;12.00;;;;;;;6.56;100.00;100753.09;7395968;19;20443;-37
2023/04/14 07:24:53;;;;;;;16.23;9.17;;;;;;;6.61;100.00;100761.91;7392138;19;20443;-36
2023/04/14 07:27:25;;;;;;;18.30;8.67;;;;;;;6.75;100.00;100755.03;7396578;19;20417;-34
2023/04/14 07:29:54;;;;;;;24.53;14.40;;;;;;;6.89;100.00;100766.06;7395883;19;20458;-34
2023/04/14 07:32:24;;;;;;;23.53;11.43;;;;;;;6.98;100.00;100773.41;7395291;19;20447;-38
2023/04/14 07:34:56;;;;;;;15.83;8.10;;;;;;;6.96;100.00;100782.69;7396480;19;21296;-36
2023/04/14 07:37:27;;;;;;;18.80;7.80;;;;;;;7.12;100.00;100790.47;7396942;19;20407;-36
2023/04/14 07:39:57;;;;;;;17.93;8.80;;;;;;;7.27;100.00;100802.38;7395033;19;20439;-34
2023/04/14 07:42:27;;;;;;;64.37;23.30;;;;;;;7.35;100.00;100802.81;7394858;19;20427;-35
2023/04/14 07:44:57;;;;;;;12.23;6.40;;;;;;;7.39;100.00;100826.16;7393714;19;20431;-35
2023/04/14 07:47:27;;;;;;;13.67;5.50;;;;;;;7.37;100.00;100845.75;7392888;19;20403;-35
2023/04/14 07:49:59;;;;;;;11.87;5.30;;;;;;;7.42;100.00;100854.59;7393178;19;20443;-36
2023/04/14 07:52:29;;;;;;;13.10;5.33;;;;;;;7.48;100.00;100868.56;7394942;19;20459;-35
2023/04/14 07:54:58;;;;;;;7.63;4.00;;;;;;;7.52;100.00;100885.91;7391946;19;20475;-35
2023/04/14 07:57:28;;;;;;;10.73;4.70;;;;;;;7.55;100.00;100893.78;7395047;19;20411;-36
2023/04/14 07:59:57;;;;;;;36.43;15.47;;;;;;;7.55;100.00;100916.91;7391616;19;20431;-34
2023/04/14 08:02:27;;;;;;;11.40;5.50;;;;;;;7.53;100.00;100928.75;7395384;19;20853;-34
2023/04/14 08:04:59;;;;;;;10.30;4.53;;;;;;;7.62;100.00;100948.94;7394315;19;20447;-34
2023/04/14 08:07:30;;;;;;;40.13;13.53;;;;;;;7.63;100.00;100961.88;7397164;19;20455;-36
2023/04/14 08:10:00;;;;;;;8.47;4.43;;;;;;;7.63;100.00;100974.72;7389214;19;20429;-35
2023/04/14 08:12:29;;;;;;;10.97;3.90;;;;;;;7.69;100.00;100990.47;7394896;19;20451;-35
2023/04/14 08:14:59;;;;;;;7.13;3.90;;;;;;;7.74;100.00;100993.28;7391675;19;20443;-35
2023/04/14 08:17:29;;;;;;;15.50;7.37;;;;;;;7.76;100.00;101003.66;7394402;19;20971;-33
2023/04/14 08:20:01;;;;;;;10.33;3.97;;;;;;;7.92;100.00;100998.59;7390506;19;20832;-36
2023/04/14 08:22:30;;;;;;;8.10;3.13;;;;;;;7.96;100.00;101008.25;7393839;19;20443;-35
2023/04/14 08:25:00;;;;;;;6.97;4.03;;;;;;;8.05;100.00;101012.16;7392751;19;21013;-34
2023/04/14 08:27:30;;;;;;;7.23;3.17;;;;;;;8.09;100.00;101019.22;7395352;19;20483;-33
2023/04/14 08:30:00;;;;;;;13.50;3.33;;;;;;;8.23;100.00;101020.00;7391201;19;20454;-33
2023/04/14 08:32:30;;;;;;;6.10;2.90;;;;;;;8.32;100.00;101010.19;7395132;19;20996;-35
2023/04/14 08:35:02;;;;;;;9.33;3.90;;;;;;;8.45;100.00;101006.63;7392346;19;20452;-34
2023/04/14 08:37:51;;;;;;;12.50;3.10;;;;;;;8.58;100.00;101004.75;7395565;19;20440;-33
2023/04/14 08:40:23;;;;;;;8.30;3.10;;;;;;;8.71;100.00;101002.03;7392141;19;20450;-35
2023/04/14 08:42:55;;;;;;;6.00;3.43;;;;;;;8.75;100.00;101000.50;7394230;19;20471;-35
2023/04/14 08:45:25;;;;;;;12.53;3.10;;;;;;;8.84;100.00;101010.41;7392885;19;20428;-34
2023/04/14 08:47:56;;;;;;;6.97;3.03;;;;;;;8.92;100.00;101006.53;7395039;19;20900;-34
2023/04/14 08:50:34;;;;;;;7.63;3.23;;;;;;;8.97;100.00;101010.22;7391176;19;20523;-35
2023/04/14 08:53:05;;;;;;;5.20;2.47;;;;;;;9.03;100.00;101007.97;7393309;19;20475;-35
2023/04/14 08:55:35;;;;;;;8.50;2.50;;;;;;;9.14;100.00;101003.38;7391952;19;20454;-35
2023/04/14 08:58:05;;;;;;;7.20;2.73;;;;;;;9.15;100.00;100993.97;7392500;19;20435;-35
2023/04/14 09:00:34;;;;;;;8.00;2.57;;;;;;;9.24;100.00;100991.00;7391158;19;20447;-34
2023/04/14 09:03:05;;;;;;;5.70;1.80;;;;;;;9.25;100.00;100973.06;7392990;19;20459;-35
2023/04/14 09:05:38;;;;;;;8.67;2.50;;;;;;;9.24;100.00;100950.69;7391925;19;20468;-34
2023/04/14 09:08:07;;;;;;;6.33;2.33;;;;;;;9.35;100.00;100940.94;7392992;19;20403;-35
2023/04/14 09:10:37;;;;;;;8.00;2.77;;;;;;;9.48;100.00;100916.66;7391161;19;20443;-34
2023/04/14 09:13:10;;;;;;;7.17;2.17;;;;;;;9.56;100.00;100909.31;7393731;19;20475;-35
2023/04/14 09:15:39;;;;;;;5.50;1.60;;;;;;;9.64;100.00;100894.22;7391448;19;20431;-34
2023/04/14 09:18:09;;;;;;;4.50;1.70;;;;;;;9.54;100.00;100837.09;7392051;19;20416;-34
2023/04/14 09:20:41;;;;;;;7.60;1.60;;;;;;;9.67;100.00;100833.41;7391483;19;20530;-35
2023/04/14 09:23:11;;;;;;;8.57;1.90;;;;;;;9.69;100.00;100800.00;7392475;19;20439;-34
2023/04/14 09:25:42;;;;;;;8.17;2.23;;;;;;;9.80;100.00;100796.19;7388799;19;20826;-34
2023/04/14 09:28:12;;;;;;;6.63;1.60;;;;;;;9.81;100.00;100767.06;7392202;19;20930;-34
2023/04/14 09:30:41;;;;;;;5.90;1.67;;;;;;;9.86;100.00;100744.94;7390283;19;20458;-35
2023/04/14 09:33:20;;;;;;;7.73;2.10;;;;;;;9.84;100.00;100725.06;7397573;19;21003;-34
2023/04/14 09:36:19;;;;;;;9.07;2.03;;;;;;;10.02;100.00;100740.47;7398799;19;20432;-35
2023/04/14 09:38:51;;;;;;;6.90;1.67;;;;;;;10.17;100.00;100745.41;7399795;19;20436;-35
2023/04/14 09:41:24;;;;;;;8.33;1.80;;;;;;;10.12;100.00;100731.44;7397614;19;20465;-36
2023/04/14 09:43:54;;;;;;;12.27;2.20;;;;;;;10.21;100.00;100716.34;7398860;19;20447;-35
2023/04/14 09:46:24;;;;;;;8.63;2.40;;;;;;;10.28;100.00;100717.50;7398672;19;20436;-34
2023/04/14 09:48:55;;;;;;;8.33;1.50;;;;;;;10.40;100.00;100707.69;7400125;19;20403;-35
2023/04/14 09:51:29;;;;;;;6.83;1.33;;;;;;;10.36;100.00;100676.56;7397791;19;20468;-35
2023/04/14 09:54:03;;;;;;;7.10;2.07;;;;;;;10.36;100.00;100674.84;7399615;19;20478;-34
2023/04/14 09:56:33;;;;;;;5.27;1.70;;;;;;;10.38;100.00;100664.63;7398199;19;20991;-36
2023/04/14 09:59:03;;;;;;;7.10;2.40;;;;;;;10.52;100.00;100655.75;7397508;19;20774;-34
2023/04/14 10:01:35;;;;;;;12.23;2.20;;;;;;;10.63;100.00;100665.63;7397794;19;20526;-34
2023/04/14 10:04:05;;;;;;;9.30;2.07;;;;;;;10.73;100.00;100656.56;7397983;19;20455;-33
2023/04/14 10:06:42;;;;;;;7.27;2.40;;;;;;;10.96;100.00;100664.34;7392290;19;20454;-34
2023/04/14 10:09:22;;;;;;;14.20;3.60;;;;;;;11.03;100.00;100637.94;7397735;19;20403;-35
2023/04/14 10:12:10;;;;;;;8.77;2.10;;;;;;;10.87;100.00;100627.00;7399692;19;20468;-34
2023/04/14 10:14:41;;;;;;;7.67;2.47;;;;;;;10.82;100.00;100637.97;7396566;19;20407;-34
2023/04/14 10:17:12;;;;;;;5.87;2.40;;;;;;;10.88;100.00;100648.53;7398154;19;20415;-35
2023/04/14 10:19:42;;;;;;;11.70;2.60;;;;;;;11.02;100.00;100641.34;7394839;19;20949;-34
2023/04/14 10:22:14;;;;;;;8.53;2.43;;;;;;;11.12;100.00;100640.00;7396363;19;20447;-35
2023/04/14 10:24:44;;;;;;;7.90;2.20;;;;;;;11.19;100.00;100619.59;7394994;19;20732;-34
2023/04/14 10:27:13;;;;;;;7.00;2.50;;;;;;;11.13;100.00;100624.53;7397457;19;20755;-34
2023/04/14 10:29:43;;;;;;;8.30;2.03;;;;;;;11.36;100.00;100616.75;7395149;19;20762;-34
2023/04/14 10:32:16;;;;;;;7.40;2.30;;;;;;;11.33;100.00;100607.19;7395709;19;20435;-36
2023/04/14 10:34:56;;;;;;;7.23;2.40;;;;;;;11.21;100.00;100591.25;7394648;19;20439;-36
2023/04/14 10:37:28;;;;;;;8.93;2.57;;;;;;;11.25;100.00;100602.56;7395751;19;20407;-36
2023/04/14 10:39:59;;;;;;;9.00;2.10;;;;;;;11.37;100.00;100602.16;7392953;19;20970;-36
2023/04/14 10:42:31;;;;;;;6.87;2.30;;;;;;;11.38;100.00;100609.06;7395783;19;20436;-36
2023/04/14 10:45:07;;;;;;;5.50;1.37;;;;;;;11.25;100.00;100599.97;7391987;19;21033;-33
2023/04/14 10:47:41;;;;;;;7.20;2.07;;;;;;;11.28;100.00;100582.91;7397653;19;20421;-34
2023/04/14 10:50:16;;;;;;;4.83;1.70;;;;;;;11.21;100.00;100560.25;7394459;19;20450;-35
2023/04/14 10:52:57;;;;;;;11.87;2.73;;;;;;;11.35;100.00;100553.88;7397400;19;20613;-34
2023/04/14 10:55:28;;;;;;;5.53;1.33;;;;;;;11.37;100.00;100551.34;7394887;19;20443;-34
2023/04/14 10:58:06;;;;;;;8.43;2.13;;;;;;;11.41;100.00;100549.75;7396783;19;20942;-34
2023/04/14 11:00:40;;;;;;;10.10;1.97;;;;;;;11.36;100.00;100534.09;7394677;19;21256;-34
2023/04/14 11:03:11;;;;;;;5.60;1.63;;;;;;;11.25;100.00;100517.34;7395900;19;20450;-36
2023/04/14 11:05:44;;;;;;;11.93;2.83;;;;;;;11.17;100.00;100515.38;7395784;19;20443;-36
2023/04/14 11:08:18;;;;;;;3.83;1.53;;;;;;;10.91;100.00;100527.34;7396204;19;20414;-33
2023/04/14 11:10:51;;;;;;;7.93;2.20;;;;;;;11.05;100.00;100528.75;7393689;19;20870;-34
2023/04/14 11:13:21;;;;;;;11.37;2.07;;;;;;;10.87;100.00;100517.75;7396361;19;20447;-34
2023/04/14 11:15:52;;;;;;;6.47;1.60;;;;;;;10.76;100.00;100525.06;7394871;19;20462;-34
2023/04/14 11:18:35;;;;;;;4.97;1.20;;;;;;;11.01;100.00;100515.63;7396983;19;20388;-34
2023/04/14 11:21:06;;;;;;;5.90;1.90;;;;;;;11.07;100.00;100518.44;7387984;19;20466;-34
2023/04/14 11:23:39;;;;;;;5.50;1.60;;;;;;;11.16;100.00;100513.63;7396549;19;20451;-34
2023/04/14 11:26:10;;;;;;;9.67;1.47;;;;;;;11.00;100.00;100506.13;7395144;19;20470;-36
2023/04/14 11:28:43;;;;;;;15.20;3.00;;;;;;;11.05;100.00;100510.66;7396149;19;20411;-36
2023/04/14 11:31:14;;;;;;;10.23;2.50;;;;;;;11.00;100.00;100513.88;7392888;19;20443;-36
2023/04/14 11:33:44;;;;;;;6.83;1.60;;;;;;;11.11;100.00;100512.56;7396738;19;20463;-34
2023/04/14 11:36:14;;;;;;;5.50;1.57;;;;;;;11.28;100.00;100510.56;7393853;19;20819;-35